Etusivu
METAR-TAF:

METAR-TAF

Lentoasemat :

Muscatine, Iowa, Yhdysvallat

Leveyspiiri: 41-22N, Pituuspiiri: 091-09W, korkeus merenpinnasta: 167 m

Tämänhetkinen sää

Tämä raportti tehtiin 16 minuuttia sitten, kello 20.35 UTC
Tuuli 18 kn pohjoisesta puuskistuen 24 kn:hen
Lämpötila 1°C
Kosteus 44%
Ilmanpaine 1022 hPa
Näkyvyys: 16.1 km
Pilvistä 4600 ft:n korkeudessa

METAR: KMUT 262035Z AUTO 35018G24KT 10SM OVC046 01/M10 A3019 RMK AO2

Aika: 14:51 (20:51 UTC)


TAF: puuttuu

Säähavainnot ja -ennusteet yli 4000 lentoasemalta (METAR- ja TAF-raportit).

Käytössä olevat sääasemat on merkitty karttaan keltaisilla ja punaisilla pisteillä.

Aseta hiiri pisteen päälle nähdäksesi sääaseman nimen.

Klikkaa sitten nähdäksesi säähavainnot ja -ennusteet.

Kartan vaihtaminen: klikkaa mustalla rastilla varustettuja vihreitä pisteitä, niin voit zoomata sisään; viivalla varustettua vihreää pistettä, niin voit zoomata ulos tai vihreitä nuolia, niin pääset viereisille kartoille.


METAR-TAF: